Terminal Aerodrome Forecast
Issued by NWS

Current Version | Previous Version | Text Only | Print | Product List | Glossary On
Versions: 1 2 3 4 5 6 7 8 9 10 11 12 13 14 15 16
468
FTUS44 KBMX 281720
TAFANB
TAF
KANB 281720Z 2818/2918 11012KT P6SM SCT050 SCT250
     FM282000 07007KT P6SM VCSH SCT050
     FM290000 06003KT P6SM SCT250=

USA.gov is the U.S. government's official web portal to all federal, state and local government web resources and services.